Time;durP1;ratioP1;P1;durP2;ratioP2;P2;SDS_P1;SDS_P2;PMS_P1;PMS_P2;Temp;Humidity;BMP_temperature;BMP_pressure;BME280_temperature;BME280_humidity;BME280_pressure;Samples;Min_cycle;Max_cycle;Signal;HPM_P1;HPM_P2
2021/11/12 00:04:54;;;;;;;;;101.67;94.00;;;;;;;;5070642;28;49654;-68
2021/11/12 00:12:35;;;;;;;;;101.33;93.67;;;;;;;;5072678;28;50146;-61
2021/11/12 00:15:00;;;;;;;;;103.00;91.67;;;;;;;;5073370;28;49997;-61
2021/11/12 00:17:31;;;;;;;;;103.00;97.00;;;;;;;;5072550;27;49712;-61
2021/11/12 00:19:57;;;;;;;;;109.00;100.33;;;;;;;;5071965;28;49972;-61
2021/11/12 00:22:23;;;;;;;;;108.00;96.67;;;;;;;;5072487;28;49760;-60
2021/11/12 00:24:49;;;;;;;;;101.67;86.33;;;;;;;;5072917;28;49474;-61
2021/11/12 00:27:15;;;;;;;;;100.00;87.00;;;;;;;;5072429;28;49911;-61
2021/11/12 00:29:56;;;;;;;;;108.33;94.67;;;;;;;;5054590;28;49814;-61
2021/11/12 00:32:45;;;;;;;;;113.33;97.00;;;;;;;;5072540;28;49633;-61
2021/11/12 00:40:23;;;;;;;;;101.33;91.00;;;;;;;;5072509;28;49712;-64
2021/11/12 00:45:26;;;;;;;;;101.67;88.00;;;;;;;;5072614;27;50014;-61
2021/11/12 00:50:40;;;;;;;;;99.00;88.33;;;;;;;;5072429;28;49617;-63
2021/11/12 00:55:39;;;;;;;;;99.67;90.67;;;;;;;;5072503;28;49954;-62
2021/11/12 00:58:05;;;;;;;;;105.33;96.67;;;;;;;;5053769;28;50720;-61
2021/11/12 01:00:30;;;;;;;;;102.67;94.33;;;;;;;;5054100;28;49720;-61
2021/11/12 01:02:56;;;;;;;;;103.67;94.33;;;;;;;;5072515;28;49920;-61
2021/11/12 01:05:22;;;;;;;;;98.67;87.33;;;;;;;;5071285;28;49952;-61
2021/11/12 01:07:47;;;;;;;;;94.33;81.00;;;;;;;;5071552;28;50446;-61
2021/11/12 01:10:13;;;;;;;;;102.00;89.33;;;;;;;;5071621;27;55518;-61
2021/11/12 01:12:38;;;;;;;;;102.00;89.33;;;;;;;;5053720;28;49797;-60
2021/11/12 01:15:04;;;;;;;;;110.67;94.67;;;;;;;;5072127;28;49751;-61
2021/11/12 01:17:29;;;;;;;;;106.33;88.00;;;;;;;;5071519;28;50662;-61
2021/11/12 01:19:54;;;;;;;;;101.00;89.00;;;;;;;;5071907;28;49869;-61
2021/11/12 01:22:21;;;;;;;;;100.33;86.00;;;;;;;;5071799;28;49860;-61
2021/11/12 01:24:46;;;;;;;;;109.33;91.33;;;;;;;;5071710;28;49983;-61
2021/11/12 01:27:12;;;;;;;;;104.67;91.67;;;;;;;;5070846;28;49856;-61
2021/11/12 01:29:38;;;;;;;;;100.67;89.33;;;;;;;;5071117;28;65618;-61
2021/11/12 01:32:19;;;;;;;;;104.33;90.00;;;;;;;;5053500;28;49754;-61
2021/11/12 01:34:45;;;;;;;;;103.67;89.00;;;;;;;;5071794;28;50253;-61
2021/11/12 01:37:10;;;;;;;;;99.33;90.67;;;;;;;;5052049;28;49953;-61
2021/11/12 01:39:35;;;;;;;;;101.67;90.33;;;;;;;;5071513;27;49625;-61
2021/11/12 01:42:01;;;;;;;;;98.00;87.33;;;;;;;;5071652;28;49757;-61
2021/11/12 01:44:37;;;;;;;;;100.33;84.00;;;;;;;;5071717;28;49661;-62
2021/11/12 01:49:37;;;;;;;;;108.00;96.67;;;;;;;;5071362;27;50078;-61
2021/11/12 01:52:12;;;;;;;;;102.00;87.00;;;;;;;;5070888;28;49713;-61
2021/11/12 01:54:48;;;;;;;;;98.00;83.33;;;;;;;;5071592;28;49853;-61
2021/11/12 01:57:29;;;;;;;;;109.00;95.33;;;;;;;;5071089;28;49816;-61
2021/11/12 01:59:55;;;;;;;;;100.00;87.00;;;;;;;;5071317;28;49966;-61
2021/11/12 02:02:20;;;;;;;;;122.00;99.33;;;;;;;;5071214;28;49820;-61
2021/11/12 02:04:46;;;;;;;;;107.00;99.00;;;;;;;;5071348;28;49711;-61
2021/11/12 02:07:12;;;;;;;;;102.33;91.00;;;;;;;;5069866;28;50345;-61
2021/11/12 02:09:37;;;;;;;;;100.67;87.00;;;;;;;;5071075;28;49655;-62
2021/11/12 02:12:25;;;;;;;;;104.00;94.33;;;;;;;;5071289;28;49925;-61
2021/11/12 02:14:51;;;;;;;;;104.67;92.00;;;;;;;;5071096;28;49821;-61
2021/11/12 02:17:25;;;;;;;;;99.67;88.67;;;;;;;;5052933;28;49686;-62
2021/11/12 02:20:10;;;;;;;;;112.33;94.67;;;;;;;;5070883;28;49632;-61
2021/11/12 02:22:36;;;;;;;;;102.67;93.00;;;;;;;;5070769;28;49624;-61
2021/11/12 02:25:07;;;;;;;;;100.00;86.33;;;;;;;;5030206;28;50270;-61
2021/11/12 02:27:40;;;;;;;;;104.67;96.67;;;;;;;;5029467;28;49740;-61
2021/11/12 02:30:06;;;;;;;;;101.00;91.67;;;;;;;;5029323;28;49925;-61
2021/11/12 02:32:31;;;;;;;;;102.67;92.67;;;;;;;;5029233;28;49801;-62
2021/11/12 02:34:58;;;;;;;;;104.00;95.67;;;;;;;;5030479;28;49995;-63
2021/11/12 02:37:23;;;;;;;;;105.00;96.33;;;;;;;;5028745;28;51775;-64
2021/11/12 02:39:49;;;;;;;;;99.33;89.33;;;;;;;;5030161;28;49857;-63
2021/11/12 02:42:14;;;;;;;;;102.00;85.00;;;;;;;;5030371;28;49743;-63
2021/11/12 02:44:40;;;;;;;;;101.67;80.33;;;;;;;;5030528;28;49917;-62
2021/11/12 02:47:05;;;;;;;;;101.33;82.67;;;;;;;;5029945;28;50552;-60
2021/11/12 02:49:30;;;;;;;;;101.33;82.00;;;;;;;;5028782;28;49729;-61
2021/11/12 02:51:56;;;;;;;;;96.33;77.00;;;;;;;;5029889;28;50023;-61
2021/11/12 02:54:22;;;;;;;;;94.00;77.67;;;;;;;;5030236;28;49675;-68
2021/11/12 02:56:50;;;;;;;;;92.00;71.67;;;;;;;;5029832;28;50384;-63
2021/11/12 02:59:15;;;;;;;;;95.67;74.00;;;;;;;;5030039;28;49705;-62
2021/11/12 03:01:46;;;;;;;;;90.00;70.33;;;;;;;;5030022;28;49549;-63
2021/11/12 03:04:12;;;;;;;;;94.00;75.33;;;;;;;;5030176;28;49756;-62
2021/11/12 03:06:38;;;;;;;;;93.67;75.33;;;;;;;;5029399;28;50424;-63
2021/11/12 03:09:06;;;;;;;;;89.67;68.67;;;;;;;;5029869;28;49700;-61
2021/11/12 03:11:31;;;;;;;;;95.00;76.67;;;;;;;;5028165;28;49608;-67
2021/11/12 03:13:56;;;;;;;;;95.00;72.67;;;;;;;;5029994;28;49685;-65
2021/11/12 03:16:21;;;;;;;;;92.00;71.67;;;;;;;;5029255;28;50662;-65
2021/11/12 03:18:47;;;;;;;;;94.00;74.67;;;;;;;;5029419;28;58657;-64
2021/11/12 03:21:15;;;;;;;;;91.33;71.33;;;;;;;;5029654;28;49674;-64
2021/11/12 03:23:49;;;;;;;;;93.33;72.00;;;;;;;;5045486;28;49924;-67
2021/11/12 03:26:23;;;;;;;;;92.00;68.33;;;;;;;;5069782;28;49806;-68
2021/11/12 03:29:05;;;;;;;;;87.67;70.33;;;;;;;;5070073;27;49678;-67
2021/11/12 04:01:57;;;;;;;;;69.33;49.33;;;;;;;;5057528;28;49902;-65
2021/11/12 04:20:56;;;;;;;;;79.50;61.00;;;;;;;;5055012;28;50550;-61
2021/11/12 04:39:58;;;;;;;;;81.25;61.75;;;;;;;;5072507;28;49751;-61
2021/11/12 04:40:27;;;;;;;;;74.50;58.50;;;;;;;;5072679;28;49651;-61
2021/11/12 05:34:34;;;;;;;;;64.00;51.50;;;;;;;;5048957;28;49815;-63
2021/11/12 05:46:02;;;;;;;;;59.50;50.00;;;;;;;;5071617;28;49723;-64
2021/11/12 05:56:01;;;;;;;;;61.75;46.50;;;;;;;;5072379;28;49698;-60
2021/11/12 05:58:27;;;;;;;;;55.25;43.75;;;;;;;;5071210;28;50567;-62
2021/11/12 06:00:52;;;;;;;;;61.50;50.00;;;;;;;;5071313;27;49631;-60
2021/11/12 06:03:18;;;;;;;;;59.00;47.50;;;;;;;;5070810;28;49745;-61
2021/11/12 06:05:43;;;;;;;;;57.25;47.75;;;;;;;;5070451;27;57674;-60
2021/11/12 06:08:08;;;;;;;;;45.75;39.50;;;;;;;;5069776;28;50592;-61
2021/11/12 06:10:33;;;;;;;;;55.75;47.25;;;;;;;;5075730;27;49898;-67
2021/11/12 06:12:58;;;;;;;;;58.50;46.75;;;;;;;;5061981;28;49771;-64
2021/11/12 06:15:24;;;;;;;;;58.25;46.75;;;;;;;;5085818;27;49495;-61
2021/11/12 06:17:50;;;;;;;;;61.00;48.75;;;;;;;;5071315;28;49985;-59
2021/11/12 06:20:16;;;;;;;;;53.25;43.50;;;;;;;;5075916;28;49618;-61
2021/11/12 06:22:41;;;;;;;;;60.50;46.00;;;;;;;;5078532;28;49576;-65
2021/11/12 06:25:06;;;;;;;;;53.25;46.00;;;;;;;;5075312;28;49876;-59
2021/11/12 06:27:32;;;;;;;;;57.50;46.00;;;;;;;;5076903;28;51224;-61
2021/11/12 06:29:57;;;;;;;;;60.50;48.75;;;;;;;;5072744;28;49624;-60
2021/11/12 06:32:22;;;;;;;;;48.75;40.50;;;;;;;;5081065;27;49607;-60
2021/11/12 06:34:48;;;;;;;;;51.00;45.50;;;;;;;;5060501;28;49882;-54
2021/11/12 06:37:14;;;;;;;;;60.25;49.25;;;;;;;;5058507;27;50488;-57
2021/11/12 06:39:39;;;;;;;;;64.75;50.25;;;;;;;;5072835;27;49763;-61
2021/11/12 06:42:16;;;;;;;;;61.00;51.00;;;;;;;;5073210;27;49708;-61
2021/11/12 06:49:59;;;;;;;;;56.00;47.25;;;;;;;;5068561;28;49640;-59
2021/11/12 06:52:25;;;;;;;;;56.25;46.00;;;;;;;;5068610;27;49837;-60
2021/11/12 06:54:51;;;;;;;;;55.00;43.75;;;;;;;;5069046;27;49679;-59
2021/11/12 06:57:17;;;;;;;;;55.00;45.00;;;;;;;;5068697;27;49717;-59
2021/11/12 06:59:43;;;;;;;;;52.75;45.25;;;;;;;;5068868;27;50222;-58
2021/11/12 07:02:09;;;;;;;;;52.00;43.00;;;;;;;;5068438;27;49899;-58
2021/11/12 07:04:34;;;;;;;;;60.25;47.75;;;;;;;;5068720;28;49903;-58
2021/11/12 07:06:59;;;;;;;;;60.75;46.75;;;;;;;;5069621;27;59482;-59
2021/11/12 07:09:25;;;;;;;;;55.50;45.75;;;;;;;;5070545;27;49688;-59
2021/11/12 07:11:50;;;;;;;;;59.50;46.50;;;;;;;;5069077;28;49940;-60
2021/11/12 07:14:16;;;;;;;;;55.00;42.25;;;;;;;;5071296;27;49613;-66
2021/11/12 07:16:42;;;;;;;;;56.25;44.75;;;;;;;;5072621;28;50546;-66
2021/11/12 07:19:07;;;;;;;;;54.75;43.50;;;;;;;;5073916;27;49898;-66
2021/11/12 07:21:32;;;;;;;;;51.25;44.00;;;;;;;;5073352;27;52668;-67
2021/11/12 07:23:57;;;;;;;;;58.00;45.50;;;;;;;;5073425;27;49699;-65
2021/11/12 07:26:23;;;;;;;;;52.75;43.50;;;;;;;;5073549;27;49986;-64
2021/11/12 07:28:49;;;;;;;;;55.25;47.00;;;;;;;;5073577;27;49841;-67
2021/11/12 07:31:16;;;;;;;;;58.75;45.00;;;;;;;;5073816;28;49741;-64
2021/11/12 07:33:42;;;;;;;;;51.25;45.25;;;;;;;;5073887;27;49618;-63
2021/11/12 07:36:14;;;;;;;;;48.75;41.75;;;;;;;;5073272;27;49635;-63
2021/11/12 07:46:35;;;;;;;;;45.00;41.25;;;;;;;;5072127;27;49663;-64
2021/11/12 07:49:01;;;;;;;;;56.00;45.50;;;;;;;;5073368;27;49644;-63
2021/11/12 07:51:27;;;;;;;;;51.00;43.00;;;;;;;;5073328;27;49688;-64
2021/11/12 07:53:52;;;;;;;;;50.50;44.50;;;;;;;;5073562;27;49863;-64
2021/11/12 07:56:17;;;;;;;;;42.25;35.50;;;;;;;;5073027;27;50395;-64
2021/11/12 07:58:43;;;;;;;;;58.50;46.75;;;;;;;;5073261;27;49916;-64
2021/11/12 08:01:08;;;;;;;;;56.00;46.25;;;;;;;;5072805;27;59463;-64
2021/11/12 08:03:34;;;;;;;;;55.75;40.25;;;;;;;;5073347;27;49849;-67
2021/11/12 08:06:02;;;;;;;;;49.25;42.00;;;;;;;;5072616;27;51428;-64
2021/11/12 08:08:30;;;;;;;;;56.25;46.25;;;;;;;;5072829;27;49900;-63
2021/11/12 08:11:01;;;;;;;;;51.50;45.25;;;;;;;;5073096;28;49704;-64
2021/11/12 08:21:07;;;;;;;;;50.75;41.75;;;;;;;;5072823;27;49783;-67
2021/11/12 08:23:46;;;;;;;;;56.50;48.75;;;;;;;;5072933;27;49700;-68
2021/11/12 08:26:38;;;;;;;;;56.25;44.50;;;;;;;;5071762;27;50876;-71
2021/11/12 08:31:36;;;;;;;;;57.00;45.00;;;;;;;;5072983;27;50320;-68
2021/11/12 08:37:10;;;;;;;;;50.75;42.25;;;;;;;;5037651;27;50531;-68
2021/11/12 08:42:36;;;;;;;;;55.50;45.50;;;;;;;;5016672;27;49825;-67
2021/11/12 08:47:43;;;;;;;;;58.50;46.25;;;;;;;;5072285;27;50210;-75
2021/11/12 08:50:14;;;;;;;;;58.75;44.50;;;;;;;;5071364;28;50088;-72
2021/11/12 08:52:40;;;;;;;;;50.50;43.00;;;;;;;;5072200;27;49717;-70
2021/11/12 08:55:07;;;;;;;;;59.00;49.50;;;;;;;;5072571;27;49716;-71
2021/11/12 08:57:33;;;;;;;;;60.25;46.00;;;;;;;;5072222;28;49679;-68
2021/11/12 08:59:58;;;;;;;;;58.75;46.75;;;;;;;;5072291;27;49650;-70
2021/11/12 09:02:25;;;;;;;;;59.50;47.50;;;;;;;;5070939;28;50294;-69
2021/11/12 09:04:50;;;;;;;;;66.25;51.25;;;;;;;;5072297;27;49943;-69
2021/11/12 09:07:17;;;;;;;;;59.50;50.00;;;;;;;;5071768;27;50620;-69
2021/11/12 09:09:42;;;;;;;;;59.75;49.75;;;;;;;;5070805;28;49911;-69
2021/11/12 09:12:09;;;;;;;;;56.50;47.75;;;;;;;;5072191;27;50127;-69
2021/11/12 09:14:39;;;;;;;;;62.50;51.00;;;;;;;;5071043;28;49771;-70
2021/11/12 09:17:05;;;;;;;;;63.50;49.00;;;;;;;;5070483;27;51297;-69
2021/11/12 09:19:31;;;;;;;;;58.25;46.50;;;;;;;;5071909;27;49699;-69
2021/11/12 09:21:56;;;;;;;;;57.25;47.25;;;;;;;;5071791;27;50141;-69
2021/11/12 09:24:21;;;;;;;;;50.50;44.00;;;;;;;;5070602;28;49746;-69
2021/11/12 09:26:47;;;;;;;;;62.75;49.25;;;;;;;;5071082;27;64706;-69
2021/11/12 09:29:12;;;;;;;;;58.00;48.00;;;;;;;;5070684;28;49985;-69
2021/11/12 09:31:38;;;;;;;;;63.25;51.00;;;;;;;;5071837;27;49699;-69
2021/11/12 09:34:04;;;;;;;;;67.75;49.50;;;;;;;;5071858;28;49893;-69
2021/11/12 09:36:30;;;;;;;;;57.25;47.50;;;;;;;;5071255;27;49668;-69
2021/11/12 09:38:55;;;;;;;;;36.50;35.00;;;;;;;;5071474;27;55945;-69
2021/11/12 09:41:20;;;;;;;;;59.00;47.25;;;;;;;;5070410;28;49835;-69
2021/11/12 09:43:48;;;;;;;;;49.25;44.00;;;;;;;;5070079;28;52759;-69
2021/11/12 09:46:14;;;;;;;;;14.25;7.50;;;;;;;;5071404;28;49695;-68
2021/11/12 09:48:40;;;;;;;;;49.50;43.50;;;;;;;;5071317;27;49571;-70
2021/11/12 09:51:05;;;;;;;;;55.00;44.75;;;;;;;;5070106;28;49753;-69
2021/11/12 09:53:31;;;;;;;;;56.25;46.25;;;;;;;;5071713;27;50005;-64
2021/11/12 09:55:56;;;;;;;;;49.25;40.75;;;;;;;;5073331;27;49852;-68
2021/11/12 09:58:21;;;;;;;;;56.25;44.50;;;;;;;;5080776;27;49762;-64
2021/11/12 10:00:53;;;;;;;;;56.50;45.50;;;;;;;;5069047;28;49843;-69
2021/11/12 10:03:18;;;;;;;;;59.25;46.50;;;;;;;;5071652;27;49689;-70
2021/11/12 10:05:46;;;;;;;;;61.75;47.75;;;;;;;;5052247;28;61475;-69
2021/11/12 10:08:28;;;;;;;;;54.75;43.25;;;;;;;;5070720;28;49685;-69
2021/11/12 10:10:54;;;;;;;;;53.75;46.25;;;;;;;;5053168;28;49668;-70
2021/11/12 10:13:21;;;;;;;;;50.25;42.50;;;;;;;;5071283;28;49517;-69
2021/11/12 10:15:50;;;;;;;;;50.75;38.75;;;;;;;;5052783;28;49793;-69
2021/11/12 10:18:15;;;;;;;;;55.00;43.75;;;;;;;;5071204;28;49744;-69
2021/11/12 10:20:40;;;;;;;;;55.25;44.50;;;;;;;;5070792;28;49835;-69
2021/11/12 10:23:14;;;;;;;;;51.00;43.50;;;;;;;;5052028;28;54749;-69
2021/11/12 10:25:52;;;;;;;;;57.75;45.50;;;;;;;;5070971;28;49740;-69
2021/11/12 10:28:32;;;;;;;;;54.25;44.25;;;;;;;;5071025;28;49672;-69
2021/11/12 10:30:57;;;;;;;;;59.00;48.00;;;;;;;;5052846;28;49750;-69
2021/11/12 10:33:34;;;;;;;;;51.25;43.75;;;;;;;;5052872;28;50053;-70
2021/11/12 10:35:59;;;;;;;;;57.25;47.25;;;;;;;;5070467;28;51616;-70
2021/11/12 10:38:31;;;;;;;;;49.25;41.25;;;;;;;;5052559;28;56547;-69
2021/11/12 10:40:56;;;;;;;;;57.00;46.00;;;;;;;;5052837;28;49946;-69
2021/11/12 10:43:21;;;;;;;;;55.00;41.50;;;;;;;;5070364;28;55347;-69
2021/11/12 10:45:47;;;;;;;;;43.00;39.50;;;;;;;;5070399;28;51768;-69
2021/11/12 10:48:12;;;;;;;;;43.75;39.75;;;;;;;;5070406;28;49956;-69
2021/11/12 10:50:40;;;;;;;;;44.00;39.50;;;;;;;;5069655;28;54848;-69
2021/11/12 10:53:15;;;;;;;;;47.75;40.75;;;;;;;;5070697;28;49712;-69
2021/11/12 10:55:43;;;;;;;;;52.75;41.25;;;;;;;;5070314;28;49739;-69
2021/11/12 10:58:08;;;;;;;;;55.00;45.50;;;;;;;;5070487;28;49842;-69
2021/11/12 11:00:48;;;;;;;;;46.25;41.75;;;;;;;;5052401;28;49724;-70
2021/11/12 11:03:13;;;;;;;;;46.50;42.00;;;;;;;;5052948;28;49827;-71
2021/11/12 11:05:38;;;;;;;;;54.60;42.40;;;;;;;;5070710;28;50930;-69
2021/11/12 11:08:04;;;;;;;;;54.50;41.50;;;;;;;;5070455;27;49699;-70
2021/11/12 11:10:29;;;;;;;;;51.50;44.00;;;;;;;;5052168;28;49745;-69
2021/11/12 11:12:56;;;;;;;;;57.25;44.75;;;;;;;;5070589;28;49708;-69
2021/11/12 11:15:25;;;;;;;;;52.25;42.75;;;;;;;;5052259;28;49798;-69
2021/11/12 11:18:03;;;;;;;;;59.00;43.50;;;;;;;;5069922;28;50136;-70
2021/11/12 11:20:29;;;;;;;;;50.75;41.75;;;;;;;;5070247;28;49623;-69
2021/11/12 11:22:56;;;;;;;;;42.75;37.50;;;;;;;;5070230;28;49694;-70
2021/11/12 11:25:23;;;;;;;;;47.25;38.75;;;;;;;;5069909;28;49728;-69
2021/11/12 11:27:48;;;;;;;;;52.25;40.00;;;;;;;;5070058;28;49700;-70
2021/11/12 11:30:14;;;;;;;;;54.75;43.50;;;;;;;;5070088;28;49902;-71
2021/11/12 11:32:43;;;;;;;;;51.50;43.25;;;;;;;;5070341;28;49528;-70
2021/11/12 11:35:08;;;;;;;;;50.25;41.50;;;;;;;;5051783;28;50246;-70
2021/11/12 11:37:34;;;;;;;;;42.00;38.00;;;;;;;;5069748;28;49598;-69
2021/11/12 11:39:59;;;;;;;;;56.50;44.00;;;;;;;;5051900;28;49761;-69
2021/11/12 11:42:24;;;;;;;;;53.00;43.50;;;;;;;;5051849;28;49798;-69
2021/11/12 11:44:50;;;;;;;;;47.50;42.00;;;;;;;;5069503;27;50589;-69
2021/11/12 11:47:19;;;;;;;;;47.00;41.00;;;;;;;;5069971;28;49729;-69
2021/11/12 11:49:48;;;;;;;;;52.50;43.00;;;;;;;;5052292;28;49756;-69
2021/11/12 11:52:14;;;;;;;;;48.75;40.50;;;;;;;;5069956;28;49956;-69
2021/11/12 11:54:44;;;;;;;;;46.00;41.00;;;;;;;;5051521;28;50810;-69
2021/11/12 11:57:13;;;;;;;;;48.25;41.75;;;;;;;;5070120;27;49628;-70
2021/11/12 11:59:40;;;;;;;;;51.50;39.00;;;;;;;;5069855;28;49661;-69
2021/11/12 12:02:10;;;;;;;;;49.50;40.50;;;;;;;;5072394;27;49735;-69
2021/11/12 12:04:41;;;;;;;;;52.00;44.75;;;;;;;;5054563;28;49872;-69
2021/11/12 12:07:16;;;;;;;;;54.25;44.25;;;;;;;;5073047;28;49808;-70
2021/11/12 12:09:48;;;;;;;;;55.75;46.75;;;;;;;;5055625;27;49785;-69
2021/11/12 12:12:28;;;;;;;;;46.00;39.00;;;;;;;;5073283;28;49775;-69
2021/11/12 12:14:54;;;;;;;;;44.25;40.00;;;;;;;;5072799;28;49640;-69
2021/11/12 12:17:25;;;;;;;;;47.75;41.00;;;;;;;;5054452;28;49708;-69
2021/11/12 12:20:16;;;;;;;;;49.25;41.00;;;;;;;;5072960;28;49762;-69
2021/11/12 12:30:58;;;;;;;;;45.75;40.75;;;;;;;;5072786;27;49724;-69
2021/11/12 12:33:43;;;;;;;;;41.50;38.75;;;;;;;;5073439;28;49695;-69
2021/11/12 13:19:34;;;;;;;;;36.50;35.50;;;;;;;;5056579;28;49870;-69
2021/11/12 13:21:45;;;;;;;;;31.75;28.00;;;;;;;;5058419;28;51204;-70
2021/11/12 13:24:36;;;;;;;;;35.25;31.75;;;;;;;;5071708;28;49723;-70
2021/11/12 13:27:05;;;;;;;;;34.75;32.75;;;;;;;;5071764;28;49751;-70
2021/11/12 13:29:31;;;;;;;;;38.50;31.50;;;;;;;;5071835;28;49925;-70
2021/11/12 13:31:59;;;;;;;;;48.00;35.50;;;;;;;;5071734;28;49800;-70
2021/11/12 13:34:26;;;;;;;;;41.75;36.25;;;;;;;;5071732;28;49924;-69
2021/11/12 13:36:51;;;;;;;;;42.00;36.50;;;;;;;;5053413;28;49754;-70
2021/11/12 13:39:19;;;;;;;;;43.00;37.00;;;;;;;;5071666;27;49725;-69
2021/11/12 13:41:51;;;;;;;;;37.50;34.25;;;;;;;;5071443;28;50471;-69
2021/11/12 13:44:20;;;;;;;;;39.00;36.75;;;;;;;;5072022;27;50007;-69
2021/11/12 13:46:46;;;;;;;;;46.75;37.75;;;;;;;;5071589;28;49720;-69
2021/11/12 13:49:22;;;;;;;;;40.00;37.25;;;;;;;;5053535;28;49853;-69
2021/11/12 13:51:47;;;;;;;;;46.75;40.00;;;;;;;;5071353;28;50888;-69
2021/11/12 13:54:12;;;;;;;;;45.50;40.00;;;;;;;;5053129;28;55897;-69
2021/11/12 13:56:37;;;;;;;;;49.00;39.75;;;;;;;;5052824;28;62602;-70
2021/11/12 13:59:09;;;;;;;;;51.25;43.50;;;;;;;;5077841;27;49805;-72
2021/11/12 14:01:35;;;;;;;;;40.00;36.50;;;;;;;;5068973;27;49940;-71
2021/11/12 14:04:01;;;;;;;;;47.50;41.50;;;;;;;;5091634;27;49905;-72
2021/11/12 14:06:36;;;;;;;;;47.25;38.00;;;;;;;;5091220;27;49773;-71
2021/11/12 14:09:04;;;;;;;;;37.00;31.50;;;;;;;;5071367;27;49987;-69
2021/11/12 14:11:29;;;;;;;;;31.00;28.75;;;;;;;;5054534;28;49744;-71
2021/11/12 14:13:59;;;;;;;;;29.50;27.50;;;;;;;;5067988;27;49652;-71
2021/11/12 14:16:48;;;;;;;;;28.25;26.25;;;;;;;;5068153;27;49782;-71
2021/11/12 14:19:35;;;;;;;;;21.75;21.50;;;;;;;;5050975;28;49761;-70
2021/11/12 14:22:04;;;;;;;;;24.75;23.25;;;;;;;;5050253;28;50354;-71
2021/11/12 14:24:49;;;;;;;;;21.50;21.50;;;;;;;;5049554;28;49720;-69
2021/11/12 14:35:06;;;;;;;;;21.00;21.00;;;;;;;;5050436;28;49571;-69
2021/11/12 14:40:15;;;;;;;;;17.75;15.50;;;;;;;;5050656;28;49823;-69
2021/11/12 14:45:56;;;;;;;;;18.75;16.25;;;;;;;;5050497;28;50036;-69
2021/11/12 14:51:08;;;;;;;;;17.75;12.75;;;;;;;;5050184;28;49732;-69
2021/11/12 14:56:17;;;;;;;;;14.50;14.00;;;;;;;;5032024;28;50466;-69
2021/11/12 14:58:43;;;;;;;;;17.00;14.50;;;;;;;;5034252;28;49761;-68
2021/11/12 15:01:10;;;;;;;;;17.75;16.75;;;;;;;;5050344;28;49641;-68
2021/11/12 15:03:35;;;;;;;;;13.75;13.75;;;;;;;;5050028;28;50570;-68
2021/11/12 15:06:01;;;;;;;;;15.75;15.75;;;;;;;;5050035;28;49845;-68
2021/11/12 15:08:27;;;;;;;;;12.50;12.50;;;;;;;;5050091;28;49613;-68
2021/11/12 15:10:54;;;;;;;;;13.25;13.25;;;;;;;;5050288;28;49902;-69
2021/11/12 15:13:19;;;;;;;;;17.75;16.00;;;;;;;;5050019;28;49869;-68
2021/11/12 15:15:45;;;;;;;;;15.00;15.00;;;;;;;;5050002;28;49656;-68
2021/11/12 15:18:10;;;;;;;;;14.00;14.00;;;;;;;;5049995;28;49659;-69
2021/11/12 15:20:37;;;;;;;;;19.25;19.25;;;;;;;;5049857;28;49962;-68
2021/11/12 15:28:35;;;;;;;;;21.50;17.25;;;;;;;;5050134;28;49828;-68
2021/11/12 15:33:25;;;;;;;;;19.00;18.25;;;;;;;;5049639;28;49701;-69
2021/11/12 15:35:52;;;;;;;;;16.50;16.50;;;;;;;;5051516;28;49857;-68
2021/11/12 15:41:04;;;;;;;;;19.25;16.50;;;;;;;;5053387;28;49651;-68
2021/11/12 15:43:40;;;;;;;;;18.25;18.25;;;;;;;;5034755;28;51529;-68
2021/11/12 15:46:14;;;;;;;;;22.75;19.75;;;;;;;;5036928;28;49933;-68
2021/11/12 15:48:42;;;;;;;;;24.25;19.00;;;;;;;;5036623;28;49712;-66
2021/11/12 15:54:14;;;;;;;;;15.75;15.75;;;;;;;;5052786;28;49680;-66
2021/11/12 16:09:37;;;;;;;;;24.00;22.00;;;;;;;;5052889;28;49903;-63
2021/11/12 16:12:14;;;;;;;;;24.75;22.50;;;;;;;;5053145;28;49576;-63
2021/11/12 16:23:22;;;;;;;;;25.25;23.50;;;;;;;;5015106;28;49755;-63
2021/11/12 16:25:47;;;;;;;;;24.75;23.75;;;;;;;;5052428;28;50900;-62
2021/11/12 16:28:19;;;;;;;;;25.75;24.50;;;;;;;;5052548;28;49768;-64
2021/11/12 16:30:49;;;;;;;;;25.75;24.25;;;;;;;;5052610;28;49550;-66
2021/11/12 16:33:14;;;;;;;;;27.25;24.75;;;;;;;;5052964;28;49988;-73
2021/11/12 16:35:42;;;;;;;;;22.25;22.25;;;;;;;;5052384;28;49919;-64
2021/11/12 16:38:28;;;;;;;;;27.50;26.75;;;;;;;;5059474;27;49724;-66
2021/11/12 16:41:16;;;;;;;;;26.75;22.00;;;;;;;;5068895;27;49724;-67
2021/11/12 16:46:45;;;;;;;;;30.25;25.00;;;;;;;;5039225;28;49809;-63
2021/11/12 16:54:24;;;;;;;;;31.25;28.50;;;;;;;;5072270;28;49569;-63
2021/11/12 16:56:59;;;;;;;;;29.75;29.75;;;;;;;;5072190;28;50127;-62
2021/11/12 16:59:46;;;;;;;;;33.00;27.25;;;;;;;;5055550;28;49842;-63
2021/11/12 17:02:25;;;;;;;;;26.75;25.25;;;;;;;;5072424;28;49714;-62
2021/11/12 17:05:03;;;;;;;;;27.25;25.75;;;;;;;;5072332;28;49573;-63
2021/11/12 17:10:08;;;;;;;;;32.75;29.75;;;;;;;;5072163;28;49845;-62
2021/11/12 17:13:05;;;;;;;;;34.00;29.50;;;;;;;;5072208;28;49748;-62
2021/11/12 17:15:35;;;;;;;;;39.75;31.25;;;;;;;;5056660;28;50068;-62
2021/11/12 17:45:17;;;;;;;;;34.50;30.75;;;;;;;;5071592;28;49781;-67
2021/11/12 17:47:45;;;;;;;;;31.00;28.25;;;;;;;;5071685;28;49695;-67
2021/11/12 17:50:33;;;;;;;;;30.75;30.00;;;;;;;;5071484;27;50454;-67
2021/11/12 18:04:06;;;;;;;;;32.25;25.50;;;;;;;;5087437;27;49531;-70
2021/11/12 18:06:35;;;;;;;;;35.50;32.50;;;;;;;;5087631;28;49393;-69
2021/11/12 18:14:17;;;;;;;;;26.00;24.75;;;;;;;;5087628;27;49830;-71
2021/11/12 18:17:11;;;;;;;;;38.25;34.00;;;;;;;;5088766;28;49290;-69
2021/11/12 18:22:36;;;;;;;;;31.75;28.25;;;;;;;;5088596;27;50026;-68
2021/11/12 21:45:26;;;;;;;;;33.75;31.50;;;;;;;;5071659;28;50114;-65
2021/11/12 21:47:52;;;;;;;;;33.75;32.50;;;;;;;;5071672;28;49775;-66
2021/11/12 21:50:17;;;;;;;;;27.50;26.50;;;;;;;;5053803;28;49799;-66
2021/11/12 21:52:42;;;;;;;;;35.25;31.50;;;;;;;;5071705;28;49751;-66
2021/11/12 21:55:07;;;;;;;;;32.75;25.75;;;;;;;;5071684;28;50014;-65
2021/11/12 21:57:33;;;;;;;;;35.50;34.50;;;;;;;;5071702;28;49630;-66
2021/11/12 21:59:58;;;;;;;;;34.75;30.00;;;;;;;;5071642;28;49735;-65
2021/11/12 22:02:24;;;;;;;;;39.50;34.50;;;;;;;;5071744;27;49750;-65
2021/11/12 22:04:49;;;;;;;;;37.25;32.50;;;;;;;;5071317;28;49775;-66
2021/11/12 22:07:14;;;;;;;;;35.00;33.50;;;;;;;;5071378;28;49823;-66
2021/11/12 22:09:39;;;;;;;;;37.25;36.25;;;;;;;;5071509;28;49864;-65
2021/11/12 22:12:05;;;;;;;;;34.50;32.25;;;;;;;;5071605;27;49664;-65
2021/11/12 22:14:30;;;;;;;;;42.75;35.75;;;;;;;;5071112;28;50517;-65
2021/11/12 22:16:56;;;;;;;;;38.00;33.50;;;;;;;;5071498;28;49723;-65
2021/11/12 22:19:21;;;;;;;;;37.75;31.75;;;;;;;;5071470;28;49664;-66
2021/11/12 22:21:47;;;;;;;;;41.25;35.25;;;;;;;;5052990;28;49772;-66
2021/11/12 22:24:12;;;;;;;;;43.50;37.00;;;;;;;;5070904;28;49829;-65
2021/11/12 22:26:38;;;;;;;;;42.50;34.50;;;;;;;;5053197;28;49692;-66
2021/11/12 22:29:03;;;;;;;;;50.75;40.00;;;;;;;;5071413;28;49917;-65
2021/11/12 22:31:28;;;;;;;;;36.75;34.00;;;;;;;;5071557;27;49753;-65
2021/11/12 22:33:53;;;;;;;;;42.50;35.25;;;;;;;;5070771;28;54160;-65
2021/11/12 22:36:18;;;;;;;;;38.00;34.75;;;;;;;;5071150;27;49755;-65
2021/11/12 22:38:44;;;;;;;;;33.50;33.50;;;;;;;;5071072;28;49680;-65
2021/11/12 22:41:09;;;;;;;;;36.00;30.75;;;;;;;;5071569;28;49945;-66
2021/11/12 22:43:35;;;;;;;;;36.50;33.25;;;;;;;;5070842;28;50380;-65
2021/11/12 22:46:01;;;;;;;;;28.75;28.00;;;;;;;;5070215;28;49645;-65
2021/11/12 22:48:26;;;;;;;;;37.50;33.25;;;;;;;;5052790;28;49994;-65
2021/11/12 22:50:51;;;;;;;;;40.25;36.75;;;;;;;;5070848;28;55187;-65
2021/11/12 22:53:16;;;;;;;;;35.75;30.25;;;;;;;;5070515;28;50378;-66
2021/11/12 22:55:41;;;;;;;;;39.75;36.75;;;;;;;;5070919;28;49529;-66
2021/11/12 22:58:07;;;;;;;;;29.50;25.00;;;;;;;;5070950;28;49617;-65
2021/11/12 23:00:32;;;;;;;;;36.50;35.00;;;;;;;;5071369;28;49920;-65
2021/11/12 23:02:57;;;;;;;;;34.00;31.50;;;;;;;;5070842;28;50243;-66
2021/11/12 23:05:22;;;;;;;;;43.25;36.75;;;;;;;;5052704;28;49773;-66
2021/11/12 23:07:47;;;;;;;;;42.00;35.00;;;;;;;;5070527;27;49679;-66
2021/11/12 23:10:13;;;;;;;;;34.00;33.25;;;;;;;;5070576;28;51173;-66
2021/11/12 23:12:38;;;;;;;;;43.50;36.75;;;;;;;;5070231;28;60754;-66
2021/11/12 23:15:03;;;;;;;;;37.00;35.00;;;;;;;;5070757;28;49483;-68
2021/11/12 23:17:28;;;;;;;;;38.75;36.25;;;;;;;;5070559;28;50078;-66
2021/11/12 23:19:54;;;;;;;;;35.75;34.50;;;;;;;;5070495;28;49530;-65
2021/11/12 23:22:19;;;;;;;;;42.00;36.75;;;;;;;;5069732;28;59582;-66
2021/11/12 23:24:44;;;;;;;;;29.75;29.75;;;;;;;;5052151;28;53958;-65
2021/11/12 23:27:09;;;;;;;;;37.75;33.50;;;;;;;;5070415;28;52673;-66
2021/11/12 23:29:34;;;;;;;;;37.00;32.75;;;;;;;;5070503;28;49797;-66
2021/11/12 23:31:59;;;;;;;;;39.25;32.00;;;;;;;;5069953;28;64932;-67